Stadt Schwerin — V2OK — position and weather

sailwx.info

Track history (hours):
 
Tides and Currents Weather Stations Pressure Air Temp Water Temp Dewpoint Dewpoint Depression Visibility Wind Speed Wind Dir Waves Ship Positions

Stadt Schwerin

Last reported at 2014-Sep-30 16:32 UTC. Time now 2014-Oct-01 06:11 UTC.
Position N 36°46' E 003°04'.

Length 158 m; draft 7.2 m.

Type: Cargo ship. MMSI: 304010999.

Date/timePositionNaut miles runAvg speedWind from/ knotsBaromVisibWave heightAir tempDewpointWater temp
2014-Sep-30 16:32N 36°46' E 003°04'0 0.0
2014-Sep-29 23:11N 36°46' E 003°04'2 0.4
2014-Sep-29 18:20N 36°46' E 003°06'0 0.0
2014-Sep-29 17:32N 36°46' E 003°06'0 0.0
2014-Sep-29 16:32N 36°46' E 003°06'0 0.0
2014-Sep-29 14:14N 36°46' E 003°07'0 0.0
2014-Sep-29 12:08N 36°46' E 003°07'0 0.1
2014-Sep-29 08:32N 36°46' E 003°07'0 0.0
2014-Sep-28 03:13N 36°46' E 003°06'0 0.1
2014-Sep-28 02:31N 36°46' E 003°06'0 0.0
2014-Sep-28 01:25N 36°46' E 003°06'0 0.0
2014-Sep-28 00:31N 36°46' E 003°06'0 0.0
2014-Sep-27 23:31N 36°46' E 003°06'0 0.0
2014-Sep-27 22:19N 36°46' E 003°06'0 0.0
2014-Sep-27 21:31N 36°46' E 003°06'0 0.0
2014-Sep-27 20:31N 36°46' E 003°06'0 0.0
2014-Sep-27 19:31N 36°46' E 003°06'0 0.0
2014-Sep-27 18:19N 36°46' E 003°06'0 0.0
2014-Sep-27 16:25N 36°46' E 003°06'0 0.0
2014-Sep-27 15:31N 36°46' E 003°06'  
2014-Sep-24 23:31N 36°32' E 012°56'5814.4
2014-Sep-24 19:30N 35°59' E 013°56'1514.0
2014-Sep-24 18:24N 35°51' E 014°11'1413.2
2014-Sep-24 17:20N 35°45' E 014°27'6 7.8
2014-Sep-24 16:32N 35°49' E 014°33'3 0.1
2014-Sep-23 15:10N 35°47' E 014°35'1211.1
2014-Sep-23 14:06N 35°46' E 014°20'2113.9
2014-Sep-23 12:33N 35°58' E 013°58'1111.0
2014-Sep-23 11:33N 36°04' E 013°46'1111.5
2014-Sep-23 10:33N 36°09' E 013°34'1313.2
2014-Sep-23 09:33N 36°17' E 013°20'1313.1
2014-Sep-23 08:33N 36°23' E 013°06'1413.7
2014-Sep-23 07:34N 36°31' E 012°52'1414.3
2014-Sep-23 06:33N 36°39' E 012°37'1414.1
2014-Sep-23 05:34N 36°46' E 012°22'1414.0
2014-Sep-23 04:33N 36°54' E 012°08'2713.7
2014-Sep-23 02:33N 37°07' E 011°37'7214.0
2014-Sep-22 21:25N 37°33' E 010°13'1314.6
2014-Sep-22 20:33N 37°34' E 009°57'1514.9
2014-Sep-22 19:33N 37°29' E 009°40'1414.4
2014-Sep-22 18:33N 37°24' E 009°22'1414.3
2014-Sep-22 17:33N 37°20' E 009°05'1414.2
2014-Sep-22 16:33N 37°14' E 008°49'1413.7
2014-Sep-22 15:33N 37°08' E 008°33'1313.3
2014-Sep-22 14:33N 37°03' E 008°18'1313.2
2014-Sep-22 13:33N 36°59' E 008°02'  
Track history (hours):
 
Tides and Currents Weather Stations Pressure Air Temp Water Temp Dewpoint Dewpoint Depression Visibility Wind Speed Wind Dir Waves Ship Positions

Stadt Schwerin

Last reported at 2014-Sep-30 16:32 UTC. Time now 2014-Oct-01 06:11 UTC.
Position N 36°46' E 003°04'.

Length 158 m; draft 7.2 m.

Type: Cargo ship. MMSI: 304010999.

Date/timePositionNaut miles runAvg speedWind from/ knotsBaromVisibWave heightAir tempDewpointWater temp
2014-Sep-30 16:32N 36°46' E 003°04'0 0.0
2014-Sep-29 23:11N 36°46' E 003°04'2 0.4
2014-Sep-29 18:20N 36°46' E 003°06'0 0.0
2014-Sep-29 17:32N 36°46' E 003°06'0 0.0
2014-Sep-29 16:32N 36°46' E 003°06'0 0.0
2014-Sep-29 14:14N 36°46' E 003°07'0 0.0
2014-Sep-29 12:08N 36°46' E 003°07'0 0.1
2014-Sep-29 08:32N 36°46' E 003°07'0 0.0
2014-Sep-28 03:13N 36°46' E 003°06'0 0.1
2014-Sep-28 02:31N 36°46' E 003°06'0 0.0
2014-Sep-28 01:25N 36°46' E 003°06'0 0.0
2014-Sep-28 00:31N 36°46' E 003°06'0 0.0
2014-Sep-27 23:31N 36°46' E 003°06'0 0.0
2014-Sep-27 22:19N 36°46' E 003°06'0 0.0
2014-Sep-27 21:31N 36°46' E 003°06'0 0.0
2014-Sep-27 20:31N 36°46' E 003°06'0 0.0
2014-Sep-27 19:31N 36°46' E 003°06'0 0.0
2014-Sep-27 18:19N 36°46' E 003°06'0 0.0
2014-Sep-27 16:25N 36°46' E 003°06'0 0.0
2014-Sep-27 15:31N 36°46' E 003°06'  
2014-Sep-24 23:31N 36°32' E 012°56'5814.4
2014-Sep-24 19:30N 35°59' E 013°56'1514.0
2014-Sep-24 18:24N 35°51' E 014°11'1413.2
2014-Sep-24 17:20N 35°45' E 014°27'6 7.8
2014-Sep-24 16:32N 35°49' E 014°33'3 0.1
2014-Sep-23 15:10N 35°47' E 014°35'1211.1
2014-Sep-23 14:06N 35°46' E 014°20'2113.9
2014-Sep-23 12:33N 35°58' E 013°58'1111.0
2014-Sep-23 11:33N 36°04' E 013°46'1111.5
2014-Sep-23 10:33N 36°09' E 013°34'1313.2
2014-Sep-23 09:33N 36°17' E 013°20'1313.1
2014-Sep-23 08:33N 36°23' E 013°06'1413.7
2014-Sep-23 07:34N 36°31' E 012°52'1414.3
2014-Sep-23 06:33N 36°39' E 012°37'1414.1
2014-Sep-23 05:34N 36°46' E 012°22'1414.0
2014-Sep-23 04:33N 36°54' E 012°08'2713.7
2014-Sep-23 02:33N 37°07' E 011°37'7214.0
2014-Sep-22 21:25N 37°33' E 010°13'1314.6
2014-Sep-22 20:33N 37°34' E 009°57'1514.9
2014-Sep-22 19:33N 37°29' E 009°40'1414.4
2014-Sep-22 18:33N 37°24' E 009°22'1414.3
2014-Sep-22 17:33N 37°20' E 009°05'1414.2
2014-Sep-22 16:33N 37°14' E 008°49'1413.7
2014-Sep-22 15:33N 37°08' E 008°33'1313.3
2014-Sep-22 14:33N 37°03' E 008°18'1313.2
2014-Sep-22 13:33N 36°59' E 008°02'  

Dump ship's entire track history